Time;durP1;ratioP1;P1;durP2;ratioP2;P2;SDS_P1;SDS_P2;PMS_P1;PMS_P2;Temp;Humidity;BMP_temperature;BMP_pressure;BME280_temperature;BME280_humidity;BME280_pressure;Samples;Min_cycle;Max_cycle;Signal;HPM_P1;HPM_P2
2022/01/04 00:00:10;;;;;;;0.88;0.57;;;11.70;75.60;;;;;;5032584;28;20037;-56
2022/01/04 00:02:40;;;;;;;1.88;0.73;;;11.70;75.70;;;;;;5029952;28;20083;-55
2022/01/04 00:05:08;;;;;;;0.55;0.50;;;11.70;75.60;;;;;;5016434;28;20405;-53
2022/01/04 00:07:37;;;;;;;0.68;0.50;;;11.70;75.60;;;;;;5032211;28;20045;-56
2022/01/04 00:10:08;;;;;;;3.25;0.70;;;11.70;75.70;;;;;;5011673;28;20049;-56
2022/01/04 00:15:21;;;;;;;1.38;0.45;;;11.70;75.80;;;;;;5010436;28;20046;-51
2022/01/04 00:17:48;;;;;;;2.05;0.47;;;11.70;75.80;;;;;;5010138;28;20035;-54
2022/01/04 00:20:14;;;;;;;0.55;0.55;;;11.70;75.70;;;;;;5016402;28;20485;-53
2022/01/04 00:22:41;;;;;;;1.58;0.45;;;11.70;75.70;;;;;;5032490;28;20072;-54
2022/01/04 00:25:08;;;;;;;1.58;0.50;;;11.70;75.70;;;;;;5014883;28;20054;-56
2022/01/04 00:27:35;;;;;;;0.57;0.40;;;11.60;75.70;;;;;;5009430;28;20046;-57
2022/01/04 00:30:02;;;;;;;0.50;0.40;;;11.60;75.80;;;;;;5008241;28;20041;-56
2022/01/04 00:32:29;;;;;;;0.90;0.65;;;11.60;75.80;;;;;;5026209;28;20489;-55
2022/01/04 00:34:55;;;;;;;0.52;0.40;;;11.60;75.90;;;;;;5014038;28;20038;-54
2022/01/04 00:37:22;;;;;;;1.23;0.75;;;11.60;76.00;;;;;;5012378;28;20038;-53
2022/01/04 00:39:49;;;;;;;0.90;0.50;;;11.60;76.00;;;;;;5014427;28;20075;-54
2022/01/04 00:42:16;;;;;;;2.67;0.50;;;11.60;76.00;;;;;;5032089;28;20045;-56
2022/01/04 00:44:43;;;;;;;1.95;0.50;;;11.60;76.00;;;;;;5031463;28;20068;-54
2022/01/04 00:47:11;;;;;;;1.23;0.55;;;11.60;76.10;;;;;;5023744;28;20050;-55
2022/01/04 00:49:39;;;;;;;2.88;0.95;;;11.60;76.10;;;;;;5009963;28;20050;-54
2022/01/04 00:52:06;;;;;;;1.35;0.70;;;11.60;76.00;;;;;;5030763;28;20045;-55
2022/01/04 00:54:35;;;;;;;0.50;0.50;;;11.60;76.00;;;;;;5016244;28;20064;-55
2022/01/04 00:57:01;;;;;;;0.75;0.55;;;11.60;76.00;;;;;;5022258;28;20037;-56
2022/01/04 00:59:28;;;;;;;1.00;0.77;;;11.60;76.00;;;;;;5007090;28;20089;-55
2022/01/04 01:01:56;;;;;;;0.68;0.40;;;11.60;76.00;;;;;;5011817;28;20056;-53
2022/01/04 01:04:23;;;;;;;1.10;0.70;;;11.50;76.10;;;;;;5007889;28;20121;-56
2022/01/04 01:06:50;;;;;;;0.40;0.40;;;11.50;76.10;;;;;;5005591;28;20096;-53
2022/01/04 01:09:17;;;;;;;0.98;0.50;;;11.50;76.20;;;;;;5030215;28;20037;-56
2022/01/04 01:11:44;;;;;;;0.95;0.40;;;11.50;76.30;;;;;;5026127;28;20042;-55
2022/01/04 01:14:10;;;;;;;0.70;0.50;;;11.60;76.30;;;;;;5010981;28;20100;-51
2022/01/04 01:16:37;;;;;;;2.83;0.75;;;11.60;76.30;;;;;;4988037;28;20105;-52
2022/01/04 01:19:06;;;;;;;1.92;0.63;;;11.60;76.20;;;;;;5027709;28;20048;-53
2022/01/04 01:21:33;;;;;;;0.75;0.47;;;11.60;76.30;;;;;;5031429;28;20448;-56
2022/01/04 01:24:00;;;;;;;1.83;0.75;;;11.60;76.20;;;;;;5027955;28;20440;-56
2022/01/04 01:26:29;;;;;;;0.82;0.60;;;11.60;76.30;;;;;;5009015;28;20046;-51
2022/01/04 01:28:59;;;;;;;2.17;0.70;;;11.60;76.20;;;;;;5025152;28;20033;-53
2022/01/04 01:31:27;;;;;;;0.50;0.47;;;11.60;76.10;;;;;;5031338;28;20096;-52
2022/01/04 01:33:55;;;;;;;1.25;0.68;;;11.60;76.20;;;;;;5030828;28;20045;-51
2022/01/04 01:36:23;;;;;;;1.50;0.60;;;11.60;76.10;;;;;;5012507;28;20448;-56
2022/01/04 01:38:49;;;;;;;1.33;0.73;;;11.60;76.00;;;;;;5027199;28;20578;-54
2022/01/04 01:41:21;;;;;;;0.75;0.65;;;11.60;76.10;;;;;;5030681;28;20054;-55
2022/01/04 01:43:48;;;;;;;0.90;0.60;;;11.60;76.20;;;;;;5019123;28;20072;-53
2022/01/04 01:46:15;;;;;;;0.52;0.52;;;11.60;76.10;;;;;;5020432;28;20076;-52
2022/01/04 01:48:42;;;;;;;1.58;0.70;;;11.60;76.10;;;;;;5030679;28;20444;-51
2022/01/04 01:51:09;;;;;;;0.98;0.47;;;11.60;76.10;;;;;;5030850;28;20528;-52
2022/01/04 01:53:35;;;;;;;0.73;0.73;;;11.60;76.10;;;;;;5022207;28;20034;-56
2022/01/04 01:56:02;;;;;;;0.75;0.52;;;11.60;76.00;;;;;;5015307;28;20073;-51
2022/01/04 01:58:29;;;;;;;0.77;0.60;;;11.60;75.90;;;;;;5030380;28;20616;-54
2022/01/04 02:00:56;;;;;;;0.90;0.57;;;11.60;75.90;;;;;;5027465;28;20509;-52
2022/01/04 02:03:26;;;;;;;1.17;0.65;;;11.60;76.10;;;;;;5004301;28;20390;-56
2022/01/04 02:05:56;;;;;;;0.55;0.55;;;11.60;76.10;;;;;;5020070;28;20116;-54
2022/01/04 02:08:23;;;;;;;2.88;0.70;;;11.60;76.10;;;;;;5024901;28;20034;-56
2022/01/04 02:10:53;;;;;;;1.17;1.08;;;11.60;76.10;;;;;;5010507;28;20046;-52
2022/01/04 02:13:20;;;;;;;0.80;0.55;;;11.60;76.10;;;;;;5013127;28;20084;-51
2022/01/04 02:15:47;;;;;;;1.52;0.60;;;11.60;76.10;;;;;;5026861;28;20481;-53
2022/01/04 02:18:14;;;;;;;1.33;0.68;;;11.60;76.00;;;;;;4991061;28;20038;-55
2022/01/04 02:20:40;;;;;;;1.55;0.73;;;11.60;76.00;;;;;;4990445;28;20169;-53
2022/01/04 02:23:09;;;;;;;0.95;0.70;;;11.60;76.10;;;;;;5015634;28;20123;-52
2022/01/04 02:25:36;;;;;;;1.20;0.77;;;11.60;76.10;;;;;;5029703;28;20091;-54
2022/01/04 02:28:03;;;;;;;1.02;0.70;;;11.60;75.90;;;;;;5030191;28;20563;-52
2022/01/04 02:30:30;;;;;;;1.17;0.77;;;11.60;75.90;;;;;;5020919;28;20402;-52
2022/01/04 02:32:59;;;;;;;1.35;0.85;;;11.60;76.10;;;;;;5026332;28;20034;-56
2022/01/04 02:35:30;;;;;;;1.63;1.10;;;11.60;76.20;;;;;;5029048;28;20069;-55
2022/01/04 02:37:59;;;;;;;2.17;1.10;;;11.60;76.10;;;;;;5030229;28;20103;-56
2022/01/04 02:40:26;;;;;;;1.13;1.02;;;11.60;76.10;;;;;;5012111;28;20452;-51
2022/01/04 02:42:54;;;;;;;1.23;0.80;;;11.60;76.10;;;;;;5025614;28;20046;-52
2022/01/04 02:45:22;;;;;;;1.88;1.10;;;11.60;76.00;;;;;;5033521;28;20053;-54
2022/01/04 02:47:49;;;;;;;1.13;1.02;;;11.60;76.00;;;;;;5033676;28;20056;-53
2022/01/04 02:50:16;;;;;;;2.30;1.30;;;11.60;76.00;;;;;;5019146;28;20038;-52
2022/01/04 02:52:43;;;;;;;0.98;0.98;;;11.60;76.20;;;;;;5024033;28;20041;-52
2022/01/04 02:55:14;;;;;;;1.85;1.15;;;11.60;76.30;;;;;;5032696;28;20064;-52
2022/01/04 02:57:41;;;;;;;1.85;1.10;;;11.60;76.40;;;;;;5021845;28;20450;-50
2022/01/04 03:00:12;;;;;;;1.80;1.40;;;11.60;76.30;;;;;;5014488;28;20054;-53
2022/01/04 03:02:39;;;;;;;3.25;1.20;;;11.60;76.30;;;;;;5006576;28;20125;-53
2022/01/04 03:05:07;;;;;;;2.05;1.55;;;11.60;76.20;;;;;;5025553;28;20065;-49
2022/01/04 03:07:34;;;;;;;1.42;1.33;;;11.60;76.20;;;;;;5012615;28;20452;-50
2022/01/04 03:10:01;;;;;;;1.50;1.40;;;11.60;76.20;;;;;;5026445;28;20088;-49
2022/01/04 03:12:28;;;;;;;1.85;1.30;;;11.60;76.20;;;;;;5033397;28;20041;-53
2022/01/04 03:14:55;;;;;;;3.05;1.50;;;11.60;76.20;;;;;;5011614;28;20112;-53
2022/01/04 03:17:22;;;;;;;2.05;1.55;;;11.60;76.30;;;;;;5013827;28;20097;-53
2022/01/04 03:19:48;;;;;;;2.63;1.52;;;11.60;76.80;;;;;;5011273;28;20438;-53
2022/01/04 03:22:15;;;;;;;2.00;1.85;;;11.60;76.20;;;;;;5032798;28;20046;-49
2022/01/04 03:24:42;;;;;;;2.15;1.90;;;11.60;76.30;;;;;;5015418;28;20068;-53
2022/01/04 03:27:10;;;;;;;1.52;1.42;;;11.60;76.20;;;;;;5025922;28;20046;-48
2022/01/04 03:29:37;;;;;;;3.95;2.17;;;11.60;76.20;;;;;;5006925;28;20132;-49
2022/01/04 03:32:05;;;;;;;1.58;1.42;;;11.60;76.20;;;;;;5033077;28;20042;-49
2022/01/04 03:34:34;;;;;;;1.85;1.65;;;11.60;76.20;;;;;;5033187;28;20111;-50
2022/01/04 03:37:01;;;;;;;2.70;1.90;;;11.60;76.20;;;;;;5016277;28;20046;-49
2022/01/04 03:39:30;;;;;;;2.20;1.65;;;11.60;76.20;;;;;;5031631;28;20107;-49
2022/01/04 03:41:57;;;;;;;3.05;1.65;;;11.50;76.10;;;;;;5033000;28;20048;-53
2022/01/04 03:44:24;;;;;;;2.20;1.65;;;11.50;76.20;;;;;;5032886;28;20049;-53
2022/01/04 03:46:53;;;;;;;1.83;1.40;;;11.50;76.10;;;;;;5011225;28;20520;-50
2022/01/04 03:49:21;;;;;;;2.83;1.60;;;11.50;76.70;;;;;;5024274;28;20095;-51
2022/01/04 03:51:48;;;;;;;1.50;1.40;;;11.50;75.90;;;;;;5031991;28;20041;-50
2022/01/04 03:54:15;;;;;;;1.83;1.60;;;11.50;75.90;;;;;;5018901;28;20049;-50
2022/01/04 03:56:42;;;;;;;2.88;1.60;;;11.50;75.90;;;;;;5010540;28;20045;-50
2022/01/04 03:59:09;;;;;;;3.05;2.15;;;11.50;76.00;;;;;;5030536;28;20512;-52
2022/01/04 04:01:36;;;;;;;1.75;1.65;;;11.40;75.90;;;;;;5033136;28;20045;-53
2022/01/04 04:04:03;;;;;;;3.22;1.85;;;11.50;76.00;;;;;;5017060;28;20092;-51
2022/01/04 04:06:29;;;;;;;1.92;1.73;;;11.40;76.10;;;;;;5026934;28;20049;-53
2022/01/04 04:08:57;;;;;;;1.83;1.40;;;11.50;76.20;;;;;;5022905;28;20033;-53
2022/01/04 04:11:25;;;;;;;2.55;1.60;;;11.40;76.10;;;;;;5009481;28;20412;-51
2022/01/04 04:13:52;;;;;;;1.45;1.20;;;11.40;76.20;;;;;;5013102;28;20072;-53
2022/01/04 04:16:20;;;;;;;2.42;1.50;;;11.40;76.20;;;;;;5020995;28;20511;-52
2022/01/04 04:18:47;;;;;;;1.63;1.52;;;11.40;76.20;;;;;;5031969;28;20148;-49
2022/01/04 04:21:14;;;;;;;2.95;1.25;;;11.40;76.20;;;;;;5030664;28;20103;-53
2022/01/04 04:23:41;;;;;;;2.03;1.27;;;11.40;76.20;;;;;;5016688;28;20080;-50
2022/01/04 04:26:07;;;;;;;2.20;1.20;;;11.40;76.20;;;;;;5030400;28;20111;-53
2022/01/04 04:28:34;;;;;;;1.60;1.25;;;11.40;76.30;;;;;;5014442;28;20053;-50
2022/01/04 04:31:03;;;;;;;2.95;1.23;;;11.40;76.30;;;;;;5026309;28;20074;-53
2022/01/04 04:33:32;;;;;;;1.25;1.13;;;11.40;76.20;;;;;;5004577;28;20465;-53
2022/01/04 04:36:00;;;;;;;3.22;1.40;;;11.40;76.30;;;;;;5021883;28;20507;-49
2022/01/04 04:38:27;;;;;;;1.52;0.93;;;11.40;76.30;;;;;;5032140;28;20034;-50
2022/01/04 04:40:53;;;;;;;2.47;1.05;;;11.40;76.30;;;;;;5031713;28;20179;-53
2022/01/04 04:43:20;;;;;;;1.88;1.00;;;11.40;76.30;;;;;;4994240;28;20045;-53
2022/01/04 04:45:47;;;;;;;1.60;1.33;;;11.40;76.30;;;;;;5026814;28;20500;-50
2022/01/04 04:48:14;;;;;;;1.77;1.17;;;11.40;76.20;;;;;;5051211;22;20072;-48
2022/01/04 04:50:40;;;;;;;1.27;1.13;;;11.40;76.10;;;;;;5029661;28;20475;-50
2022/01/04 04:53:07;;;;;;;1.30;1.20;;;11.40;76.20;;;;;;5033032;28;20072;-48
2022/01/04 04:55:34;;;;;;;1.40;1.30;;;11.40;76.20;;;;;;5029855;28;20104;-46
2022/01/04 04:58:01;;;;;;;1.10;1.00;;;11.40;76.20;;;;;;5041464;28;20050;-48
2022/01/04 05:00:28;;;;;;;1.70;1.30;;;11.40;76.30;;;;;;5051537;28;20098;-47
2022/01/04 05:02:54;;;;;;;1.40;1.25;;;11.40;76.40;;;;;;5037556;28;20061;-47
2022/01/04 05:05:24;;;;;;;1.92;1.27;;;11.40;76.50;;;;;;5039706;28;20049;-48
2022/01/04 05:07:53;;;;;;;3.83;1.70;;;11.40;76.40;;;;;;5031111;28;20037;-48
2022/01/04 05:10:20;;;;;;;1.40;1.27;;;11.40;76.40;;;;;;5029020;28;20033;-47
2022/01/04 05:12:47;;;;;;;1.10;1.00;;;11.40;76.50;;;;;;5037884;28;20496;-46
2022/01/04 05:15:14;;;;;;;2.05;1.10;;;11.40;76.40;;;;;;5039030;28;20068;-47
2022/01/04 05:17:43;;;;;;;0.93;0.85;;;11.50;76.40;;;;;;5027145;28;20575;-49
2022/01/04 05:20:10;;;;;;;1.90;1.20;;;11.40;76.40;;;;;;5034832;28;20504;-48
2022/01/04 05:22:39;;;;;;;1.60;1.38;;;11.50;76.50;;;;;;5042646;28;20033;-47
2022/01/04 05:25:07;;;;;;;1.42;1.33;;;11.40;76.50;;;;;;5031295;28;20041;-46
2022/01/04 05:27:33;;;;;;;1.38;1.27;;;11.50;76.50;;;;;;5029214;28;20034;-46
2022/01/04 05:30:00;;;;;;;1.45;1.35;;;11.50;76.50;;;;;;5028880;28;20041;-47
2022/01/04 05:32:27;;;;;;;1.73;1.63;;;11.50;76.50;;;;;;5040872;28;20091;-46
2022/01/04 05:34:54;;;;;;;1.58;1.48;;;11.50;76.50;;;;;;5046784;28;20037;-46
2022/01/04 05:37:22;;;;;;;2.25;1.80;;;11.40;76.40;;;;;;5031000;28;20528;-50
2022/01/04 05:39:49;;;;;;;3.47;1.83;;;11.50;76.30;;;;;;5028064;28;20033;-46
2022/01/04 05:42:16;;;;;;;2.30;1.90;;;11.40;76.10;;;;;;5031056;28;20091;-46
2022/01/04 05:44:43;;;;;;;2.50;2.30;;;11.50;76.20;;;;;;5029714;28;20087;-52
2022/01/04 05:47:09;;;;;;;3.00;2.17;;;11.50;76.20;;;;;;5025902;28;20045;-47
2022/01/04 05:49:37;;;;;;;2.28;2.00;;;11.40;76.10;;;;;;5028978;28;20049;-50
2022/01/04 05:52:04;;;;;;;3.33;2.45;;;11.50;76.20;;;;;;5031255;28;20045;-51
2022/01/04 05:54:32;;;;;;;3.80;2.25;;;11.40;76.20;;;;;;5027550;28;20068;-48
2022/01/04 05:56:59;;;;;;;1.92;1.75;;;11.40;76.30;;;;;;5030060;28;20049;-50
2022/01/04 05:59:25;;;;;;;2.38;2.17;;;11.40;76.30;;;;;;5030724;28;20049;-48
2022/01/04 06:01:52;;;;;;;2.83;2.28;;;11.40;76.20;;;;;;5028567;28;20107;-48
2022/01/04 06:04:19;;;;;;;4.03;2.67;;;11.50;76.40;;;;;;5027878;28;20042;-50
2022/01/04 06:06:46;;;;;;;4.75;2.88;;;11.40;76.20;;;;;;5024914;28;20045;-48
2022/01/04 06:09:21;;;;;;;4.38;3.15;;;11.40;76.20;;;;;;5046676;28;20512;-50
2022/01/04 06:17:00;;;;;;;3.67;3.35;;;11.40;76.10;;;;;;5039292;28;20607;-48
2022/01/04 06:19:27;;;;;;;4.10;3.30;;;11.40;76.00;;;;;;5039639;28;20036;-50
2022/01/04 06:21:54;;;;;;;4.50;2.95;;;11.40;76.00;;;;;;5041834;28;20041;-49
2022/01/04 06:24:21;;;;;;;2.97;2.70;;;11.30;76.10;;;;;;5036545;28;20060;-49
2022/01/04 06:26:48;;;;;;;3.50;2.90;;;11.30;76.10;;;;;;5028952;28;20069;-47
2022/01/04 06:29:16;;;;;;;3.20;2.42;;;11.30;76.10;;;;;;5042791;28;20037;-47
2022/01/04 06:31:44;;;;;;;3.20;2.70;;;11.30;76.10;;;;;;5028252;28;20049;-49
2022/01/04 06:34:11;;;;;;;2.97;2.35;;;11.30;76.10;;;;;;5021512;28;20053;-52
2022/01/04 06:36:38;;;;;;;2.70;2.40;;;11.30;76.10;;;;;;5030372;28;20108;-48
2022/01/04 06:39:05;;;;;;;3.92;3.28;;;11.30;76.00;;;;;;5018306;28;20041;-47
2022/01/04 06:41:32;;;;;;;2.95;2.33;;;11.30;76.10;;;;;;5026126;28;20049;-50
2022/01/04 06:43:59;;;;;;;3.05;2.75;;;11.30;76.10;;;;;;5031330;28;20151;-50
2022/01/04 06:46:26;;;;;;;3.17;2.88;;;11.30;76.10;;;;;;5031685;28;20053;-51
2022/01/04 06:48:53;;;;;;;3.50;3.08;;;11.30;76.10;;;;;;5031031;28;20409;-51
2022/01/04 06:51:20;;;;;;;4.10;2.88;;;11.30;76.20;;;;;;5026045;28;20041;-46
2022/01/04 06:53:47;;;;;;;2.50;2.30;;;11.20;76.20;;;;;;5023790;28;20037;-46
2022/01/04 06:56:13;;;;;;;4.93;2.50;;;11.20;76.20;;;;;;5033596;28;20037;-47
2022/01/04 06:58:40;;;;;;;3.88;2.85;;;11.20;76.20;;;;;;5032482;28;20037;-46
2022/01/04 07:01:07;;;;;;;4.50;2.67;;;11.20;76.20;;;;;;5027673;28;20103;-47
2022/01/04 07:03:34;;;;;;;2.88;2.58;;;11.20;76.30;;;;;;5021660;28;20144;-47
2022/01/04 07:06:01;;;;;;;2.95;2.45;;;11.20;76.20;;;;;;5028006;28;20076;-48
2022/01/04 07:08:27;;;;;;;2.83;2.63;;;11.20;76.30;;;;;;5036241;28;20043;-51
2022/01/04 07:10:54;;;;;;;3.20;2.70;;;11.20;76.30;;;;;;5027564;28;20053;-51
2022/01/04 07:13:21;;;;;;;4.03;3.22;;;11.30;76.50;;;;;;5030208;28;20048;-50
2022/01/04 07:15:47;;;;;;;4.30;2.80;;;11.20;76.50;;;;;;5041121;28;20041;-50
2022/01/04 07:18:14;;;;;;;5.10;3.05;;;11.20;76.40;;;;;;5028744;28;20049;-47
2022/01/04 07:20:41;;;;;;;3.50;3.10;;;11.20;76.40;;;;;;5008959;28;20065;-48
2022/01/04 07:23:08;;;;;;;4.18;3.25;;;11.20;76.90;;;;;;5027702;28;20053;-50
2022/01/04 07:25:34;;;;;;;3.72;3.03;;;11.20;76.20;;;;;;5018121;28;20492;-48
2022/01/04 07:28:01;;;;;;;3.50;2.92;;;11.20;76.20;;;;;;5031569;28;20045;-50
2022/01/04 07:30:28;;;;;;;4.93;3.33;;;11.20;76.20;;;;;;5029235;28;20130;-48
2022/01/04 07:32:56;;;;;;;4.32;3.13;;;11.20;76.10;;;;;;5027567;28;20033;-49
2022/01/04 07:35:22;;;;;;;4.82;3.15;;;11.20;76.20;;;;;;5030809;28;20063;-51
2022/01/04 07:37:49;;;;;;;4.97;3.13;;;11.20;76.20;;;;;;5029465;28;20046;-47
2022/01/04 07:40:17;;;;;;;3.83;3.28;;;11.20;76.20;;;;;;5040053;28;20110;-50
2022/01/04 07:42:44;;;;;;;3.72;2.92;;;11.20;76.30;;;;;;5044959;28;20682;-46
2022/01/04 07:45:11;;;;;;;3.95;3.03;;;11.20;76.40;;;;;;5042960;28;20053;-49
2022/01/04 07:47:38;;;;;;;3.65;2.90;;;11.20;76.30;;;;;;5045075;28;20046;-51
2022/01/04 07:50:05;;;;;;;3.67;3.35;;;11.20;76.30;;;;;;5031904;28;20095;-46
2022/01/04 07:52:33;;;;;;;3.08;2.78;;;11.20;76.30;;;;;;5033030;28;20072;-51
2022/01/04 07:55:00;;;;;;;3.47;3.05;;;11.20;76.40;;;;;;5043112;28;20095;-51
2022/01/04 07:57:27;;;;;;;4.50;3.83;;;11.20;76.50;;;;;;5041672;28;20068;-50
2022/01/04 07:59:53;;;;;;;4.03;3.00;;;11.20;76.70;;;;;;5028207;28;20042;-49
2022/01/04 08:02:20;;;;;;;4.45;3.63;;;11.20;76.60;;;;;;5041987;28;20088;-49
2022/01/04 08:04:47;;;;;;;4.00;3.40;;;11.20;76.50;;;;;;5035478;28;20045;-50
2022/01/04 08:07:14;;;;;;;5.22;4.40;;;11.20;76.50;;;;;;5023338;28;20041;-48
2022/01/04 08:09:41;;;;;;;6.07;3.97;;;11.20;76.50;;;;;;5029979;28;20095;-50
2022/01/04 08:12:08;;;;;;;4.72;4.15;;;11.10;76.50;;;;;;5031400;28;20046;-48
2022/01/04 08:14:35;;;;;;;5.95;4.90;;;11.10;76.50;;;;;;5031160;28;20034;-50
2022/01/04 08:17:05;;;;;;;7.65;5.22;;;11.10;76.60;;;;;;5028051;28;20595;-47
2022/01/04 08:19:31;;;;;;;5.82;4.85;;;11.20;76.70;;;;;;5027102;28;20083;-50
2022/01/04 08:21:59;;;;;;;6.57;5.07;;;11.10;76.60;;;;;;5040348;28;20045;-48
2022/01/04 08:24:26;;;;;;;7.88;5.13;;;11.10;76.60;;;;;;5037591;28;20704;-50
2022/01/04 08:26:52;;;;;;;7.80;4.85;;;11.10;76.60;;;;;;5030683;28;20116;-49
2022/01/04 08:29:19;;;;;;;5.15;4.65;;;11.10;76.70;;;;;;5040223;28;20504;-48
2022/01/04 08:31:46;;;;;;;5.43;4.45;;;11.10;76.70;;;;;;5035181;28;20098;-47
2022/01/04 08:34:13;;;;;;;6.30;5.45;;;11.20;76.90;;;;;;5041239;28;20092;-50
2022/01/04 08:36:40;;;;;;;5.43;4.93;;;11.20;77.00;;;;;;5040392;28;20059;-50
2022/01/04 08:39:09;;;;;;;6.00;5.40;;;11.20;76.90;;;;;;5045671;28;20087;-48
2022/01/04 08:41:36;;;;;;;5.35;4.70;;;11.20;77.00;;;;;;5045177;28;20752;-47
2022/01/04 08:44:08;;;;;;;5.95;4.57;;;11.20;77.00;;;;;;5018587;28;20051;-48
2022/01/04 08:46:36;;;;;;;6.03;5.28;;;11.20;77.00;;;;;;5032520;28;20103;-50
2022/01/04 08:49:09;;;;;;;7.00;5.35;;;11.20;77.00;;;;;;5033044;28;20046;-47
2022/01/04 08:51:36;;;;;;;5.72;5.13;;;11.20;76.90;;;;;;5027136;28;20103;-46
2022/01/04 08:54:05;;;;;;;8.00;5.57;;;11.20;76.70;;;;;;5017536;28;20073;-48
2022/01/04 08:56:32;;;;;;;8.75;6.13;;;11.20;76.70;;;;;;5037842;28;20087;-50
2022/01/04 08:58:59;;;;;;;7.07;6.32;;;11.20;76.70;;;;;;5040525;28;20507;-48
2022/01/04 09:01:26;;;;;;;9.00;7.47;;;11.20;76.70;;;;;;5036337;28;20049;-48
2022/01/04 09:03:53;;;;;;;5.88;5.10;;;11.20;76.60;;;;;;5036002;28;20064;-51
2022/01/04 09:06:22;;;;;;;7.22;5.13;;;11.30;76.60;;;;;;5027715;28;20095;-51
2022/01/04 09:08:50;;;;;;;5.90;5.25;;;11.30;76.60;;;;;;5039410;28;20095;-49
2022/01/04 09:11:21;;;;;;;6.38;4.80;;;11.30;76.60;;;;;;5027346;28;20037;-47
2022/01/04 09:13:49;;;;;;;7.03;5.07;;;11.30;76.50;;;;;;5025805;28;20037;-50
2022/01/04 09:19:02;;;;;;;4.95;4.32;;;11.30;76.50;;;;;;5039132;28;20419;-49
2022/01/04 09:21:32;;;;;;;5.20;4.55;;;11.30;76.50;;;;;;5045702;28;20049;-48
2022/01/04 09:24:00;;;;;;;5.45;4.55;;;11.30;76.50;;;;;;5028752;28;20053;-51
2022/01/04 09:26:28;;;;;;;4.93;3.88;;;11.30;76.60;;;;;;5040669;28;20095;-47
2022/01/04 09:28:56;;;;;;;5.65;4.38;;;11.30;76.70;;;;;;5029116;28;20504;-48
2022/01/04 09:31:25;;;;;;;4.72;4.00;;;11.30;76.70;;;;;;5031447;28;20037;-48
2022/01/04 09:33:54;;;;;;;7.32;4.90;;;11.30;76.30;;;;;;5024862;28;20041;-49
2022/01/04 09:36:32;;;;;;;6.20;5.10;;;11.30;76.20;;;;;;5029672;28;20037;-47
2022/01/04 09:39:00;;;;;;;5.70;4.55;;;11.40;76.10;;;;;;5030867;28;20500;-51
2022/01/04 09:41:27;;;;;;;5.32;4.40;;;11.30;76.00;;;;;;5049003;28;20141;-51
2022/01/04 09:43:54;;;;;;;7.05;4.25;;;11.30;76.00;;;;;;5027287;28;20060;-50
2022/01/04 09:46:21;;;;;;;4.35;3.65;;;11.50;76.20;;;;;;5030740;28;20036;-49
2022/01/04 09:48:48;;;;;;;4.15;3.42;;;11.40;76.20;;;;;;5029268;28;20048;-47
2022/01/04 09:51:16;;;;;;;4.43;4.03;;;11.30;76.20;;;;;;5027645;28;20049;-47
2022/01/04 09:53:42;;;;;;;5.30;3.70;;;11.30;76.10;;;;;;5013848;28;20521;-47
2022/01/04 09:56:09;;;;;;;4.32;3.90;;;11.30;76.20;;;;;;5032977;28;20143;-49
2022/01/04 09:58:37;;;;;;;4.15;3.22;;;11.30;76.30;;;;;;5029329;28;20456;-50
2022/01/04 10:01:04;;;;;;;5.57;3.20;;;11.40;76.40;;;;;;5026052;28;20052;-49
2022/01/04 10:03:32;;;;;;;3.97;3.20;;;11.40;76.40;;;;;;5036262;28;20172;-47
2022/01/04 10:06:05;;;;;;;3.42;3.13;;;11.40;76.30;;;;;;5028398;28;20114;-47
2022/01/04 10:08:32;;;;;;;3.67;2.97;;;11.40;76.30;;;;;;5028451;28;20041;-48
2022/01/04 10:11:06;;;;;;;4.90;2.92;;;11.40;76.30;;;;;;5028451;28;20127;-51
2022/01/04 10:13:33;;;;;;;3.28;2.20;;;11.40;76.10;;;;;;5041616;28;20067;-49
2022/01/04 10:16:00;;;;;;;4.18;2.38;;;11.40;76.00;;;;;;5031615;28;20065;-47
2022/01/04 10:18:29;;;;;;;5.80;2.90;;;11.50;76.00;;;;;;5028994;28;20106;-47
2022/01/04 10:20:58;;;;;;;2.72;2.53;;;11.50;76.10;;;;;;5038454;28;20094;-49
2022/01/04 10:23:26;;;;;;;3.03;2.33;;;11.40;76.10;;;;;;5029207;28;20514;-49
2022/01/04 10:26:03;;;;;;;3.33;2.42;;;11.50;76.00;;;;;;5027644;28;20386;-47
2022/01/04 10:28:36;;;;;;;2.90;2.40;;;11.50;75.90;;;;;;5027762;28;20046;-48
2022/01/04 10:31:09;;;;;;;2.78;2.40;;;11.50;75.70;;;;;;5031841;28;20049;-48
2022/01/04 10:33:36;;;;;;;5.13;2.60;;;11.50;75.70;;;;;;5013379;28;20496;-48
2022/01/04 10:36:11;;;;;;;3.35;2.05;;;11.50;75.90;;;;;;5027461;28;20092;-48
2022/01/04 10:38:47;;;;;;;3.22;2.60;;;11.50;75.90;;;;;;5022286;28;20041;-50
2022/01/04 10:41:20;;;;;;;2.55;2.33;;;11.50;75.80;;;;;;5027624;28;20100;-51
2022/01/04 10:44:03;;;;;;;2.97;2.35;;;11.50;75.70;;;;;;5042195;28;20033;-50
2022/01/04 10:46:35;;;;;;;2.00;1.60;;;11.50;75.60;;;;;;5016716;28;20111;-51
2022/01/04 10:49:18;;;;;;;3.35;2.63;;;11.50;75.70;;;;;;5026481;28;20038;-51
2022/01/04 10:51:47;;;;;;;3.15;2.47;;;11.50;75.70;;;;;;5028805;28;20041;-51
2022/01/04 10:54:18;;;;;;;5.63;3.00;;;11.50;75.70;;;;;;5049458;28;20492;-50
2022/01/04 10:56:46;;;;;;;3.90;2.47;;;11.50;75.80;;;;;;5026697;28;20034;-51
2022/01/04 10:59:13;;;;;;;3.15;2.53;;;11.50;75.70;;;;;;5035080;28;20034;-51
2022/01/04 11:01:46;;;;;;;2.90;2.60;;;11.50;75.80;;;;;;5042892;28;20036;-50
2022/01/04 11:04:19;;;;;;;4.72;2.78;;;11.50;75.80;;;;;;5017204;28;20044;-51
2022/01/04 11:06:48;;;;;;;3.75;3.20;;;11.60;75.70;;;;;;5027622;28;20045;-52
2022/01/04 11:09:18;;;;;;;4.40;3.08;;;11.60;76.30;;;;;;5030869;28;20609;-51
2022/01/04 11:11:45;;;;;;;5.35;3.85;;;11.60;75.70;;;;;;5050746;28;20053;-52
2022/01/04 11:14:13;;;;;;;5.63;3.85;;;11.60;75.80;;;;;;5035290;28;20158;-51
2022/01/04 11:16:41;;;;;;;5.80;3.65;;;11.60;75.90;;;;;;5037603;28;20450;-52
2022/01/04 11:19:09;;;;;;;4.30;3.50;;;11.60;75.80;;;;;;5038529;28;20037;-50
2022/01/04 11:21:38;;;;;;;6.70;4.00;;;11.60;75.70;;;;;;5031546;28;20045;-50
2022/01/04 11:24:07;;;;;;;4.65;3.70;;;11.60;75.60;;;;;;5034512;28;20045;-49
2022/01/04 11:26:38;;;;;;;5.03;3.65;;;11.70;75.70;;;;;;5038049;28;20629;-48
2022/01/04 11:29:05;;;;;;;5.97;3.70;;;11.60;75.70;;;;;;5038888;28;20093;-50
2022/01/04 11:31:44;;;;;;;6.18;3.97;;;11.60;75.60;;;;;;5051110;28;20397;-50
2022/01/04 11:34:24;;;;;;;4.70;3.72;;;11.70;75.80;;;;;;5020209;28;20048;-48
2022/01/04 11:36:51;;;;;;;5.78;4.05;;;11.70;75.70;;;;;;5029039;28;20041;-49
2022/01/04 11:39:29;;;;;;;5.18;3.80;;;11.70;75.70;;;;;;5012780;28;20041;-50
2022/01/04 11:41:57;;;;;;;5.35;3.40;;;11.70;75.70;;;;;;5030517;28;20556;-50
2022/01/04 11:44:26;;;;;;;5.63;4.20;;;11.70;75.70;;;;;;5022604;28;20045;-49
2022/01/04 11:47:01;;;;;;;6.47;4.32;;;11.70;75.80;;;;;;5029943;28;20052;-49
2022/01/04 11:49:29;;;;;;;9.60;4.57;;;11.80;75.70;;;;;;5030858;28;20045;-52
2022/01/04 11:51:56;;;;;;;8.55;4.97;;;11.80;75.70;;;;;;5029779;28;20042;-51
2022/01/04 11:54:29;;;;;;;6.88;4.43;;;11.80;75.60;;;;;;5028932;28;20095;-48
2022/01/04 11:57:15;;;;;;;5.88;5.00;;;11.80;75.50;;;;;;5031436;28;20076;-48
2022/01/04 11:59:45;;;;;;;6.60;4.55;;;11.80;75.40;;;;;;5029968;28;20041;-50
2022/01/04 12:02:39;;;;;;;6.95;4.78;;;11.80;75.20;;;;;;5027840;28;20099;-47
2022/01/04 12:05:13;;;;;;;6.97;4.93;;;11.80;75.20;;;;;;5025980;28;20119;-47
2022/01/04 12:07:48;;;;;;;8.40;5.82;;;11.80;75.00;;;;;;5028917;22;20049;-76
2022/01/04 12:10:20;;;;;;;9.82;6.25;;;11.80;75.10;;;;;;4992715;28;20463;-76
2022/01/04 12:13:12;;;;;;;9.20;5.82;;;11.80;75.30;;;;;;4991977;28;20042;-77
2022/01/04 12:15:55;;;;;;;6.07;5.10;;;11.80;75.40;;;;;;4980928;28;20422;-76
2022/01/04 12:18:34;;;;;;;9.23;6.10;;;11.80;75.30;;;;;;4997153;28;20049;-75
2022/01/04 12:21:22;;;;;;;10.35;7.03;;;11.80;75.40;;;;;;5006362;28;20406;-76
2022/01/04 12:23:49;;;;;;;11.48;7.25;;;11.80;75.40;;;;;;4990935;28;20053;-76
2022/01/04 12:26:16;;;;;;;9.57;6.38;;;11.80;75.40;;;;;;4992727;28;20045;-76
2022/01/04 12:28:43;;;;;;;9.15;6.35;;;11.80;75.30;;;;;;4993850;28;20050;-74
2022/01/04 12:31:13;;;;;;;9.98;6.88;;;11.80;75.50;;;;;;4970191;28;20058;-76
2022/01/04 12:33:51;;;;;;;9.05;6.65;;;11.70;75.60;;;;;;4998298;28;20457;-76
2022/01/04 12:36:37;;;;;;;11.43;7.45;;;11.80;75.70;;;;;;4991817;28;20046;-76
2022/01/04 12:39:04;;;;;;;11.82;7.30;;;11.80;75.60;;;;;;4988041;28;20401;-76
2022/01/04 12:41:32;;;;;;;12.85;8.55;;;11.80;75.60;;;;;;5004025;28;20080;-76
2022/01/04 12:43:59;;;;;;;11.40;7.15;;;11.80;75.60;;;;;;4972514;28;20049;-76
2022/01/04 12:46:32;;;;;;;9.98;6.97;;;11.80;75.60;;;;;;4990511;28;20080;-75
2022/01/04 12:49:01;;;;;;;;;;;11.80;75.60;;;;;;4994049;28;20577;-76
2022/01/04 12:51:33;;;;;;;10.50;7.07;;;11.90;75.70;;;;;;4992348;28;19921;-76
2022/01/04 12:54:01;;;;;;;;;;;11.80;75.40;;;;;;4999123;28;20053;-76
2022/01/04 12:56:30;;;;;;;13.23;8.02;;;11.90;75.60;;;;;;4990790;28;20063;-76
2022/01/04 12:58:57;;;;;;;9.73;7.05;;;11.90;75.10;;;;;;4995809;28;20035;-76
2022/01/04 13:01:26;;;;;;;11.60;7.78;;;11.90;75.20;;;;;;4976430;28;20486;-75
2022/01/04 13:03:55;;;;;;;12.95;6.88;;;11.80;75.20;;;;;;5006322;28;20042;-75